Time;durP1;ratioP1;P1;durP2;ratioP2;P2;SDS_P1;SDS_P2;PMS_P1;PMS_P2;Temp;Humidity;BMP_temperature;BMP_pressure;BME280_temperature;BME280_humidity;BME280_pressure;Samples;Min_cycle;Max_cycle;Signal;HPM_P1;HPM_P2
2023/09/15 00:02:09;;;;;;;6.47;4.57;;;19.80;99.90;;;;;;5002596;28;20032;-75
2023/09/15 00:04:34;;;;;;;6.32;3.72;;;19.90;99.90;;;;;;4996116;28;20612;-75
2023/09/15 00:07:00;;;;;;;6.70;4.05;;;19.90;99.90;;;;;;4994882;28;20069;-75
2023/09/15 00:09:25;;;;;;;6.88;4.40;;;19.90;99.90;;;;;;4991442;28;20076;-75
2023/09/15 00:11:51;;;;;;;7.00;3.88;;;19.90;99.90;;;;;;4998440;28;20022;-75
2023/09/15 00:14:17;;;;;;;6.25;4.18;;;19.90;99.90;;;;;;4991860;28;20392;-75
2023/09/15 00:16:44;;;;;;;7.32;3.80;;;20.00;99.90;;;;;;4990145;28;20097;-75
2023/09/15 00:19:14;;;;;;;6.88;4.28;;;19.90;99.90;;;;;;4996233;28;20068;-75
2023/09/15 00:21:40;;;;;;;6.85;4.55;;;19.90;99.90;;;;;;5005246;28;20033;-76
2023/09/15 00:24:07;;;;;;;6.38;4.55;;;19.80;99.90;;;;;;4995612;28;20030;-75
2023/09/15 00:26:33;;;;;;;9.35;4.10;;;19.80;99.90;;;;;;5001765;28;20125;-75
2023/09/15 00:29:04;;;;;;;7.97;4.38;;;19.70;99.90;;;;;;5002626;28;20032;-75
2023/09/15 00:31:29;;;;;;;6.53;4.82;;;19.70;99.90;;;;;;5005739;28;20026;-75
2023/09/15 00:33:55;;;;;;;8.05;4.65;;;19.60;99.90;;;;;;5001162;28;20021;-75
2023/09/15 00:36:21;;;;;;;6.35;4.85;;;19.80;99.90;;;;;;5001049;28;21434;-75
2023/09/15 00:38:47;;;;;;;6.20;4.55;;;19.70;99.90;;;;;;5001588;28;20030;-76
2023/09/15 00:41:13;;;;;;;7.07;5.03;;;19.60;99.90;;;;;;5003475;28;20026;-75
2023/09/15 00:43:39;;;;;;;9.82;4.45;;;19.60;99.90;;;;;;4995754;28;20058;-75
2023/09/15 00:46:08;;;;;;;7.70;4.93;;;19.60;99.90;;;;;;4997284;28;20037;-75
2023/09/15 00:48:34;;;;;;;7.18;4.78;;;19.60;99.90;;;;;;5003186;28;20404;-75
2023/09/15 00:51:06;;;;;;;5.97;4.30;;;19.50;99.90;;;;;;4992423;28;20374;-75
2023/09/15 00:53:33;;;;;;;6.47;4.32;;;19.40;99.90;;;;;;5005451;28;20053;-75
2023/09/15 00:55:58;;;;;;;8.40;4.38;;;19.50;99.90;;;;;;4996451;28;20029;-75
2023/09/15 00:58:24;;;;;;;5.78;4.00;;;19.50;99.90;;;;;;4996176;28;20058;-75
2023/09/15 01:00:51;;;;;;;5.68;4.15;;;19.60;99.90;;;;;;5002280;28;20045;-75
2023/09/15 01:03:20;;;;;;;8.50;4.65;;;19.60;99.90;;;;;;5005803;28;20033;-74
2023/09/15 01:05:46;;;;;;;8.45;4.07;;;19.70;99.90;;;;;;5004325;28;20030;-75
2023/09/15 01:08:16;;;;;;;9.25;4.20;;;19.70;99.90;;;;;;4999274;28;20025;-75
2023/09/15 01:10:41;;;;;;;7.38;4.65;;;19.70;99.90;;;;;;4994625;28;20030;-75
2023/09/15 01:13:07;;;;;;;6.10;4.32;;;19.60;99.90;;;;;;4996907;28;20026;-75
2023/09/15 01:15:40;;;;;;;8.88;4.80;;;19.70;99.90;;;;;;5002536;28;20037;-75
2023/09/15 01:18:05;;;;;;;6.07;4.43;;;19.70;99.90;;;;;;4996130;28;20045;-75
2023/09/15 01:20:49;;;;;;;7.47;4.20;;;19.80;99.90;;;;;;5000563;28;20045;-75
2023/09/15 01:24:03;;;;;;;8.35;4.70;;;19.90;99.90;;;;;;4999799;28;20053;-75
2023/09/15 01:26:47;;;;;;;6.35;4.43;;;19.80;99.90;;;;;;4953632;28;20083;-75
2023/09/15 01:29:24;;;;;;;6.53;3.63;;;19.80;99.90;;;;;;4992162;28;20381;-75
2023/09/15 01:31:50;;;;;;;9.43;4.32;;;19.70;99.90;;;;;;5002070;28;20042;-75
2023/09/15 01:34:19;;;;;;;5.57;4.35;;;19.60;99.90;;;;;;5005482;28;20387;-75
2023/09/15 01:36:44;;;;;;;7.32;5.07;;;19.70;99.90;;;;;;5005387;28;20029;-75
2023/09/15 01:39:10;;;;;;;6.97;4.50;;;19.70;99.90;;;;;;4995294;28;20038;-75
2023/09/15 01:41:36;;;;;;;8.38;4.70;;;19.80;99.90;;;;;;5000351;28;20035;-75
2023/09/15 01:44:03;;;;;;;6.95;4.03;;;19.80;99.90;;;;;;5002231;28;20041;-76
2023/09/15 01:46:28;;;;;;;9.25;4.43;;;19.80;99.90;;;;;;5005668;28;20057;-75
2023/09/15 01:48:56;;;;;;;6.72;3.90;;;19.80;99.90;;;;;;4998074;28;20484;-75
2023/09/15 01:51:22;;;;;;;6.28;4.18;;;19.80;99.90;;;;;;5002098;28;20034;-75
2023/09/15 01:53:51;;;;;;;7.22;4.32;;;19.80;99.90;;;;;;5007536;28;20029;-75
2023/09/15 01:56:18;;;;;;;8.30;4.65;;;19.80;99.90;;;;;;4999263;28;20480;-75
2023/09/15 01:58:44;;;;;;;6.10;4.15;;;19.80;99.90;;;;;;4999542;28;20042;-75
2023/09/15 02:01:10;;;;;;;6.65;4.93;;;19.70;99.90;;;;;;4995171;28;20046;-75
2023/09/15 02:03:35;;;;;;;7.28;4.57;;;19.70;99.90;;;;;;5000655;28;20041;-75
2023/09/15 02:06:04;;;;;;;6.65;4.30;;;19.60;99.90;;;;;;4995547;28;20527;-75
2023/09/15 02:08:30;;;;;;;8.63;5.50;;;19.50;99.90;;;;;;5005341;28;20085;-75
2023/09/15 02:10:56;;;;;;;6.75;4.80;;;19.50;99.90;;;;;;5004517;28;20033;-76
2023/09/15 02:13:22;;;;;;;8.77;4.97;;;19.60;99.90;;;;;;5008216;28;20444;-75
2023/09/15 02:15:51;;;;;;;9.38;4.93;;;19.50;99.90;;;;;;5000859;28;20034;-75
2023/09/15 02:18:16;;;;;;;7.28;4.68;;;19.60;99.90;;;;;;5008143;28;20033;-75
2023/09/15 02:20:42;;;;;;;7.18;4.65;;;19.60;99.90;;;;;;4999865;28;20042;-75
2023/09/15 02:23:08;;;;;;;6.45;4.40;;;19.60;99.90;;;;;;4998011;28;20069;-75
2023/09/15 02:25:36;;;;;;;7.03;4.53;;;19.60;99.90;;;;;;5001847;28;20100;-75
2023/09/15 02:28:02;;;;;;;5.95;4.30;;;19.70;99.90;;;;;;5000953;28;20026;-75
2023/09/15 02:30:28;;;;;;;7.47;5.20;;;19.80;99.90;;;;;;5000531;28;20495;-75
2023/09/15 02:32:53;;;;;;;8.60;4.32;;;19.80;99.90;;;;;;4999649;28;20026;-75
2023/09/15 02:35:20;;;;;;;6.03;3.95;;;19.80;99.90;;;;;;5002125;28;20042;-75
2023/09/15 02:37:46;;;;;;;7.32;4.43;;;19.70;99.90;;;;;;5006479;28;20417;-75
2023/09/15 02:40:14;;;;;;;6.63;4.13;;;19.80;99.90;;;;;;5005443;28;20038;-75
2023/09/15 02:42:40;;;;;;;5.30;3.90;;;19.90;99.90;;;;;;5001746;28;20349;-75
2023/09/15 02:45:06;;;;;;;6.07;4.32;;;19.90;99.90;;;;;;5001504;28;20037;-75
2023/09/15 02:47:32;;;;;;;6.15;3.78;;;19.80;99.90;;;;;;5006517;28;20084;-75
2023/09/15 02:49:57;;;;;;;7.07;4.38;;;19.80;99.90;;;;;;4997825;28;20057;-75
2023/09/15 02:52:23;;;;;;;6.28;4.25;;;19.80;99.90;;;;;;5008294;28;20029;-75
2023/09/15 02:54:49;;;;;;;6.38;4.20;;;19.70;99.90;;;;;;5002254;28;20392;-75
2023/09/15 02:57:15;;;;;;;6.78;4.57;;;19.60;99.90;;;;;;4996761;28;20464;-75
2023/09/15 02:59:40;;;;;;;11.18;4.97;;;19.50;99.90;;;;;;4996903;28;20400;-75
2023/09/15 03:02:12;;;;;;;6.20;4.00;;;19.40;99.90;;;;;;5007284;28;20399;-75
2023/09/15 03:04:38;;;;;;;5.97;4.30;;;19.40;99.90;;;;;;4991050;28;20088;-75
2023/09/15 03:07:04;;;;;;;7.13;4.80;;;19.50;99.90;;;;;;4997204;28;20033;-76
2023/09/15 03:09:31;;;;;;;6.22;3.92;;;19.40;99.90;;;;;;4992064;28;20030;-75
2023/09/15 03:11:57;;;;;;;6.38;4.78;;;19.40;99.90;;;;;;4993039;28;20034;-75
2023/09/15 03:14:23;;;;;;;7.28;4.22;;;19.50;99.90;;;;;;4988490;28;20109;-75
2023/09/15 03:16:49;;;;;;;6.50;4.07;;;19.50;99.90;;;;;;5000374;28;20034;-75
2023/09/15 03:19:15;;;;;;;8.73;4.90;;;19.50;99.90;;;;;;4994534;28;20042;-75
2023/09/15 03:21:40;;;;;;;5.45;3.72;;;19.50;99.90;;;;;;4992908;28;20026;-75
2023/09/15 03:24:08;;;;;;;6.30;3.90;;;19.50;99.90;;;;;;4993092;28;20033;-76
2023/09/15 03:26:35;;;;;;;9.30;4.55;;;19.50;99.90;;;;;;4989497;28;20112;-75
2023/09/15 03:29:01;;;;;;;6.82;4.65;;;19.40;99.90;;;;;;4995794;28;20045;-76
2023/09/15 03:31:26;;;;;;;8.85;4.93;;;19.50;99.90;;;;;;4987022;28;20023;-75
2023/09/15 03:33:52;;;;;;;6.43;4.70;;;19.50;99.90;;;;;;4987937;28;20076;-75
2023/09/15 03:36:18;;;;;;;8.15;4.50;;;19.50;99.90;;;;;;4994922;28;20026;-75
2023/09/15 03:38:43;;;;;;;8.00;4.78;;;19.50;99.90;;;;;;4989834;28;20033;-75
2023/09/15 03:41:09;;;;;;;9.05;5.10;;;19.50;99.90;;;;;;4999194;28;20460;-75
2023/09/15 03:43:35;;;;;;;6.22;4.40;;;19.50;99.90;;;;;;4992147;28;20084;-75
2023/09/15 03:46:00;;;;;;;8.35;4.82;;;19.40;99.90;;;;;;4993380;28;20036;-75
2023/09/15 03:48:26;;;;;;;7.40;4.93;;;19.40;99.90;;;;;;4991808;28;20034;-75
2023/09/15 03:50:52;;;;;;;7.95;4.47;;;19.30;99.90;;;;;;4988233;28;20034;-75
2023/09/15 03:53:18;;;;;;;7.20;5.10;;;19.30;99.90;;;;;;4998136;28;20030;-75
2023/09/15 03:55:43;;;;;;;8.07;4.70;;;19.30;99.90;;;;;;4996883;28;20027;-75
2023/09/15 03:58:09;;;;;;;6.47;4.40;;;19.00;99.90;;;;;;4989594;28;20054;-75
2023/09/15 04:00:35;;;;;;;7.13;4.72;;;18.80;99.90;;;;;;4991596;28;20615;-75
2023/09/15 04:03:03;;;;;;;5.65;4.57;;;18.80;99.90;;;;;;4995425;28;20476;-74
2023/09/15 04:05:30;;;;;;;10.20;4.60;;;18.80;99.90;;;;;;4991680;28;20050;-75
2023/09/15 04:07:56;;;;;;;6.50;4.18;;;18.90;99.90;;;;;;4990295;28;20030;-75
2023/09/15 04:10:22;;;;;;;9.05;5.15;;;18.60;99.90;;;;;;5001877;28;20026;-75
2023/09/15 04:12:48;;;;;;;9.10;4.60;;;18.70;99.90;;;;;;4989309;28;20026;-76
2023/09/15 04:15:15;;;;;;;6.88;4.35;;;18.60;99.90;;;;;;4991176;28;20028;-75
2023/09/15 04:17:44;;;;;;;6.38;4.75;;;18.50;99.90;;;;;;4991928;28;20026;-75
2023/09/15 04:20:10;;;;;;;8.38;4.63;;;18.50;99.90;;;;;;4990718;28;20045;-75
2023/09/15 04:22:40;;;;;;;6.25;4.57;;;18.60;99.90;;;;;;4994759;28;20064;-75
2023/09/15 04:25:08;;;;;;;5.82;3.65;;;18.40;99.90;;;;;;4989909;28;20603;-75
2023/09/15 04:27:34;;;;;;;6.55;4.53;;;18.40;99.90;;;;;;4998687;28;20393;-76
2023/09/15 04:30:01;;;;;;;8.38;4.78;;;18.40;99.90;;;;;;4994491;28;20341;-76
2023/09/15 04:32:26;;;;;;;6.65;4.40;;;18.40;99.90;;;;;;4992037;28;20030;-75
2023/09/15 04:34:53;;;;;;;8.02;4.60;;;18.40;99.90;;;;;;4997794;28;20036;-75
2023/09/15 04:37:20;;;;;;;7.45;5.13;;;18.40;99.90;;;;;;5000344;28;20381;-75
2023/09/15 04:39:49;;;;;;;6.60;3.85;;;18.50;99.90;;;;;;4986748;28;20042;-76
2023/09/15 04:42:15;;;;;;;6.05;4.30;;;18.40;99.90;;;;;;4995196;28;20472;-76
2023/09/15 04:44:41;;;;;;;6.75;4.40;;;18.40;99.90;;;;;;4997693;28;20067;-76
2023/09/15 04:47:07;;;;;;;6.45;4.15;;;18.40;99.90;;;;;;4984616;28;20034;-75
2023/09/15 04:49:32;;;;;;;8.38;4.38;;;18.40;99.90;;;;;;4991986;28;20473;-75
2023/09/15 04:51:58;;;;;;;6.25;4.35;;;18.40;99.90;;;;;;4984529;28;20640;-76
2023/09/15 04:54:26;;;;;;;6.00;4.32;;;18.40;99.90;;;;;;4987338;28;20608;-75
2023/09/15 04:56:51;;;;;;;7.53;3.72;;;18.40;99.90;;;;;;4986779;28;20388;-76
2023/09/15 04:59:17;;;;;;;7.20;4.93;;;18.30;99.90;;;;;;4994022;28;20045;-76
2023/09/15 05:01:44;;;;;;;5.85;3.78;;;18.30;99.90;;;;;;4999504;28;20026;-75
2023/09/15 05:04:10;;;;;;;5.45;3.50;;;18.30;99.90;;;;;;4990313;28;20057;-76
2023/09/15 05:06:36;;;;;;;5.28;4.00;;;18.20;99.90;;;;;;4996071;28;20041;-75
2023/09/15 05:09:08;;;;;;;7.13;3.38;;;18.20;99.90;;;;;;4995858;28;20042;-75
2023/09/15 05:11:34;;;;;;;6.38;4.20;;;18.30;99.90;;;;;;4991603;28;20023;-76
2023/09/15 05:14:00;;;;;;;8.57;4.15;;;18.20;99.90;;;;;;4992515;28;20049;-74
2023/09/15 05:16:28;;;;;;;5.95;4.03;;;18.20;99.90;;;;;;4998067;28;20041;-75
2023/09/15 05:18:53;;;;;;;5.32;3.95;;;18.20;99.90;;;;;;5003005;28;20105;-75
2023/09/15 05:21:19;;;;;;;6.00;3.53;;;18.30;99.90;;;;;;4995103;28;20788;-77
2023/09/15 05:23:45;;;;;;;5.43;3.50;;;18.40;99.90;;;;;;4995641;28;20124;-75
2023/09/15 05:26:10;;;;;;;6.30;3.33;;;18.50;99.90;;;;;;4990784;28;21088;-74
2023/09/15 05:28:36;;;;;;;7.45;4.15;;;18.50;99.90;;;;;;4990113;28;20445;-75
2023/09/15 05:31:02;;;;;;;5.75;3.45;;;18.60;99.90;;;;;;4992482;28;20057;-75
2023/09/15 05:33:28;;;;;;;5.85;2.95;;;18.50;99.90;;;;;;4992552;28;20034;-75
2023/09/15 05:35:55;;;;;;;5.10;3.30;;;18.60;99.90;;;;;;4989986;28;20030;-76
2023/09/15 05:38:24;;;;;;;5.50;3.38;;;18.60;99.90;;;;;;4998973;28;20050;-75
2023/09/15 05:40:50;;;;;;;4.75;3.05;;;18.70;99.90;;;;;;5001372;28;20073;-75
2023/09/15 05:43:20;;;;;;;8.52;3.65;;;18.80;99.90;;;;;;5001573;28;20543;-75
2023/09/15 05:45:47;;;;;;;7.07;3.53;;;18.90;99.90;;;;;;4999147;28;20487;-75
2023/09/15 05:48:17;;;;;;;7.63;4.03;;;18.80;99.90;;;;;;4992893;28;20198;-75
2023/09/15 05:50:44;;;;;;;7.03;3.80;;;18.90;99.90;;;;;;4995703;28;20029;-75
2023/09/15 05:53:09;;;;;;;6.90;4.38;;;18.90;99.90;;;;;;4993993;28;20030;-75
2023/09/15 05:55:35;;;;;;;5.03;3.20;;;19.00;99.90;;;;;;4991843;28;20026;-76
2023/09/15 05:58:01;;;;;;;6.82;3.92;;;18.90;99.90;;;;;;5001099;28;20066;-75
2023/09/15 06:00:26;;;;;;;6.72;4.53;;;19.00;99.90;;;;;;5001037;28;20120;-75
2023/09/15 06:02:52;;;;;;;6.05;4.15;;;19.10;99.90;;;;;;4994448;28;20049;-76
2023/09/15 06:05:20;;;;;;;5.70;3.65;;;19.20;99.90;;;;;;4994636;28;20030;-76
2023/09/15 06:07:49;;;;;;;6.40;3.83;;;19.20;99.90;;;;;;4995297;28;20095;-77
2023/09/15 06:10:15;;;;;;;6.95;4.57;;;19.20;99.90;;;;;;4990854;28;20508;-76
2023/09/15 06:12:40;;;;;;;5.53;3.85;;;19.20;99.90;;;;;;4989240;28;20027;-76
2023/09/15 06:15:07;;;;;;;9.25;4.57;;;19.20;99.90;;;;;;4989201;28;20145;-76
2023/09/15 06:17:34;;;;;;;8.00;4.43;;;19.20;99.90;;;;;;4991325;28;20460;-76
2023/09/15 06:20:00;;;;;;;8.52;5.88;;;19.30;99.90;;;;;;4994973;28;20036;-75
2023/09/15 06:22:26;;;;;;;5.90;4.53;;;19.30;99.90;;;;;;4990148;28;20068;-76
2023/09/15 06:24:52;;;;;;;7.50;4.20;;;19.40;99.90;;;;;;4992302;28;20108;-76
2023/09/15 06:27:17;;;;;;;7.10;4.40;;;19.40;99.90;;;;;;4989167;28;21127;-76
2023/09/15 06:29:43;;;;;;;7.25;4.20;;;19.40;99.90;;;;;;4992247;28;20034;-76
2023/09/15 06:32:09;;;;;;;5.82;4.25;;;19.50;99.90;;;;;;4988621;28;20673;-76
2023/09/15 06:34:35;;;;;;;5.72;4.20;;;19.40;99.90;;;;;;4996239;28;20502;-76
2023/09/15 06:37:04;;;;;;;7.40;4.57;;;19.40;99.90;;;;;;4990450;28;20072;-75
2023/09/15 06:39:30;;;;;;;7.97;4.63;;;19.40;99.90;;;;;;4989046;28;20038;-75
2023/09/15 06:41:55;;;;;;;8.40;4.65;;;19.40;99.90;;;;;;4994921;28;20108;-75
2023/09/15 06:44:21;;;;;;;7.35;4.38;;;19.40;99.90;;;;;;4992689;28;20037;-75
2023/09/15 06:46:47;;;;;;;8.00;4.95;;;19.40;99.90;;;;;;4993009;28;20037;-75
2023/09/15 06:49:14;;;;;;;8.98;4.70;;;19.40;99.90;;;;;;4988389;28;20058;-75
2023/09/15 06:51:40;;;;;;;5.95;4.43;;;19.50;99.90;;;;;;4988491;28;20026;-75
2023/09/15 06:54:06;;;;;;;6.68;4.90;;;19.50;99.90;;;;;;4997832;28;20037;-75
2023/09/15 06:56:31;;;;;;;6.75;4.82;;;19.50;99.90;;;;;;4988364;28;20114;-74
2023/09/15 06:58:57;;;;;;;7.43;4.80;;;19.50;99.90;;;;;;4987465;28;20051;-74
2023/09/15 07:01:23;;;;;;;10.35;4.88;;;19.60;99.90;;;;;;4989846;28;20038;-75
2023/09/15 07:03:49;;;;;;;7.50;4.35;;;19.60;99.90;;;;;;4986199;28;20074;-75
2023/09/15 07:06:14;;;;;;;6.63;4.35;;;19.60;99.90;;;;;;4991425;28;20052;-74
2023/09/15 07:08:40;;;;;;;10.40;4.38;;;19.70;99.90;;;;;;4987384;28;20066;-74
2023/09/15 07:11:06;;;;;;;8.63;4.65;;;19.70;99.90;;;;;;4988326;28;20065;-75
2023/09/15 07:13:31;;;;;;;8.38;4.63;;;19.70;99.90;;;;;;4994515;28;20030;-75
2023/09/15 07:15:57;;;;;;;7.65;4.78;;;19.70;99.90;;;;;;4984465;28;20495;-75
2023/09/15 07:18:23;;;;;;;8.10;4.60;;;19.70;99.90;;;;;;4997106;28;20456;-75
2023/09/15 07:20:49;;;;;;;9.10;5.63;;;19.70;99.90;;;;;;4986682;28;20038;-75
2023/09/15 07:23:15;;;;;;;6.95;5.10;;;19.80;99.90;;;;;;4996865;28;20037;-77
2023/09/15 07:25:45;;;;;;;6.55;4.88;;;19.80;99.90;;;;;;4994650;28;20030;-75
2023/09/15 07:28:11;;;;;;;7.63;5.30;;;19.90;99.90;;;;;;4982379;28;20101;-75
2023/09/15 07:30:36;;;;;;;9.88;5.97;;;19.90;99.90;;;;;;4992671;28;20543;-75
2023/09/15 07:33:03;;;;;;;7.13;4.30;;;19.80;99.90;;;;;;4995115;28;20473;-76
2023/09/15 07:35:29;;;;;;;6.70;4.57;;;19.90;99.90;;;;;;4990527;28;20069;-76
2023/09/15 07:37:55;;;;;;;7.40;5.60;;;19.80;99.90;;;;;;4990184;28;20137;-76
2023/09/15 07:40:22;;;;;;;9.20;5.93;;;19.90;99.90;;;;;;4983126;28;20031;-76
2023/09/15 07:42:48;;;;;;;7.80;6.03;;;19.80;99.90;;;;;;4983417;28;20089;-74
2023/09/15 07:45:14;;;;;;;8.63;5.57;;;20.00;99.90;;;;;;4992203;28;20044;-79
2023/09/15 07:47:39;;;;;;;11.70;5.93;;;20.00;99.90;;;;;;4991073;28;20445;-75
2023/09/15 07:50:06;;;;;;;9.82;4.90;;;20.10;99.90;;;;;;4987835;28;20098;-76
2023/09/15 07:52:32;;;;;;;6.05;4.35;;;20.20;99.90;;;;;;4985878;28;20027;-76
2023/09/15 07:54:58;;;;;;;8.93;4.50;;;20.20;99.90;;;;;;4988758;28;20022;-78
2023/09/15 07:57:24;;;;;;;10.35;5.28;;;20.30;99.90;;;;;;4998006;28;20030;-79
2023/09/15 07:59:49;;;;;;;8.55;5.28;;;20.30;99.90;;;;;;4994187;28;20133;-77
2023/09/15 08:02:15;;;;;;;7.47;5.35;;;20.20;99.90;;;;;;4992194;28;20057;-78
2023/09/15 08:04:41;;;;;;;12.80;5.97;;;20.30;99.90;;;;;;4992047;28;20461;-78
2023/09/15 08:07:07;;;;;;;9.15;5.05;;;20.30;99.90;;;;;;4995707;28;20022;-76
2023/09/15 08:09:33;;;;;;;10.90;5.70;;;20.40;99.90;;;;;;4994151;28;20499;-76
2023/09/15 08:12:03;;;;;;;6.95;4.93;;;20.40;99.90;;;;;;4992704;28;20030;-77
2023/09/15 08:14:29;;;;;;;11.95;5.65;;;20.50;99.90;;;;;;4985123;28;20036;-77
2023/09/15 08:16:55;;;;;;;10.98;5.57;;;20.50;99.90;;;;;;4992210;28;20060;-78
2023/09/15 08:19:20;;;;;;;7.47;5.43;;;20.50;99.90;;;;;;4991016;28;20022;-77
2023/09/15 08:21:47;;;;;;;8.05;5.55;;;20.50;99.90;;;;;;5002390;28;20044;-76
2023/09/15 08:24:13;;;;;;;8.82;5.72;;;20.50;99.90;;;;;;4995497;28;20023;-74
2023/09/15 08:26:38;;;;;;;8.88;6.18;;;20.50;99.90;;;;;;4991283;28;20077;-75
2023/09/15 08:29:05;;;;;;;10.20;5.43;;;20.50;99.90;;;;;;4990484;28;20037;-75
2023/09/15 08:31:31;;;;;;;8.93;5.53;;;20.50;99.90;;;;;;4982527;28;20109;-74
2023/09/15 08:33:57;;;;;;;12.40;5.30;;;20.50;99.90;;;;;;4997873;28;20033;-73
2023/09/15 08:36:25;;;;;;;13.15;6.13;;;20.60;99.90;;;;;;4993618;28;20109;-73
2023/09/15 08:38:50;;;;;;;9.02;5.75;;;20.70;99.90;;;;;;4989694;28;20124;-74
2023/09/15 08:41:35;;;;;;;8.07;5.50;;;20.80;99.90;;;;;;4991679;28;20101;-73
2023/09/15 08:44:02;;;;;;;9.52;5.35;;;21.00;99.90;;;;;;4991960;28;20046;-74
2023/09/15 08:46:31;;;;;;;10.15;5.45;;;20.80;99.90;;;;;;4985032;28;20030;-73
2023/09/15 08:48:58;;;;;;;8.13;5.40;;;20.90;99.90;;;;;;4991917;28;20582;-73
2023/09/15 08:51:25;;;;;;;11.02;5.57;;;21.00;99.90;;;;;;4982861;28;20038;-72
2023/09/15 08:53:52;;;;;;;13.30;5.22;;;21.00;99.90;;;;;;4984547;28;20068;-74
2023/09/15 08:56:18;;;;;;;7.47;4.43;;;21.10;99.90;;;;;;4982207;28;20026;-74
2023/09/15 08:58:45;;;;;;;7.30;4.45;;;21.10;99.90;;;;;;4981450;28;20045;-73
2023/09/15 09:01:14;;;;;;;6.97;3.53;;;21.30;99.90;;;;;;4984571;28;20042;-73
2023/09/15 09:03:40;;;;;;;8.27;5.05;;;21.40;99.90;;;;;;4986316;28;20476;-73
2023/09/15 09:06:09;;;;;;;8.85;4.80;;;21.40;99.90;;;;;;4987533;28;20040;-73
2023/09/15 09:08:37;;;;;;;11.82;5.50;;;21.40;99.90;;;;;;4985686;28;20029;-74
2023/09/15 09:11:03;;;;;;;9.23;4.88;;;21.30;99.90;;;;;;4981436;28;20034;-76
2023/09/15 09:13:29;;;;;;;10.82;5.22;;;21.30;99.90;;;;;;4980551;28;20100;-73
2023/09/15 09:15:55;;;;;;;9.90;4.57;;;21.40;99.90;;;;;;4985947;28;20034;-74
2023/09/15 09:18:20;;;;;;;8.30;4.78;;;21.60;99.90;;;;;;4986491;28;20030;-75
2023/09/15 09:20:49;;;;;;;9.63;5.65;;;21.50;99.90;;;;;;4983035;28;20071;-73
2023/09/15 09:23:18;;;;;;;8.68;5.07;;;21.60;99.90;;;;;;4996362;28;20588;-74
2023/09/15 09:25:43;;;;;;;5.78;4.35;;;21.80;99.90;;;;;;4986278;28;20021;-73
2023/09/15 09:28:09;;;;;;;6.85;4.63;;;21.70;99.90;;;;;;4981342;28;21213;-75
2023/09/15 09:30:35;;;;;;;8.13;4.82;;;21.70;99.90;;;;;;4986845;28;20447;-74
2023/09/15 09:33:01;;;;;;;8.82;4.57;;;21.80;99.90;;;;;;4992273;28;20021;-75
2023/09/15 09:35:27;;;;;;;7.65;4.45;;;22.00;99.90;;;;;;4989589;28;20116;-76
2023/09/15 09:37:53;;;;;;;8.93;4.45;;;22.20;99.90;;;;;;4985528;28;20137;-76
2023/09/15 09:40:21;;;;;;;7.07;5.38;;;22.20;99.90;;;;;;4981385;28;20038;-74
2023/09/15 09:42:48;;;;;;;9.40;4.57;;;22.40;99.90;;;;;;4982167;28;20100;-75
2023/09/15 09:45:14;;;;;;;9.02;5.22;;;22.50;99.90;;;;;;4985423;28;20093;-75
2023/09/15 09:47:40;;;;;;;6.97;4.50;;;22.50;99.90;;;;;;4989919;28;20252;-74
2023/09/15 09:50:11;;;;;;;9.32;4.40;;;22.50;99.90;;;;;;4982463;28;20079;-74
2023/09/15 09:52:37;;;;;;;9.25;5.30;;;22.70;99.90;;;;;;4984851;28;20046;-74
2023/09/15 09:55:09;;;;;;;8.20;5.05;;;22.90;99.90;;;;;;4981054;28;20029;-75
2023/09/15 09:57:37;;;;;;;8.50;4.95;;;22.70;99.90;;;;;;4985794;28;20044;-74
2023/09/15 10:00:04;;;;;;;10.75;4.88;;;22.90;99.90;;;;;;4993164;28;20034;-75
2023/09/15 10:02:30;;;;;;;7.75;4.90;;;23.00;99.90;;;;;;4985464;28;20105;-74
2023/09/15 10:04:56;;;;;;;6.35;4.25;;;22.90;99.90;;;;;;4982558;28;20723;-74
2023/09/15 10:07:22;;;;;;;7.32;4.63;;;23.00;99.90;;;;;;4985101;28;20032;-74
2023/09/15 10:09:48;;;;;;;12.05;4.78;;;23.00;99.90;;;;;;4989871;28;20026;-73
2023/09/15 10:12:14;;;;;;;10.10;4.80;;;22.80;99.90;;;;;;4986790;28;20602;-77
2023/09/15 10:14:40;;;;;;;6.07;4.57;;;22.90;99.90;;;;;;4989715;28;20455;-73
2023/09/15 10:17:07;;;;;;;11.32;5.00;;;22.90;99.90;;;;;;4988086;28;20476;-76
2023/09/15 10:19:33;;;;;;;8.30;4.80;;;22.90;99.90;;;;;;4986490;28;20045;-75
2023/09/15 10:22:00;;;;;;;7.95;4.53;;;22.90;99.90;;;;;;4988192;28;20041;-74
2023/09/15 10:24:31;;;;;;;6.32;4.50;;;23.20;99.90;;;;;;4993871;28;20034;-74
2023/09/15 10:26:57;;;;;;;6.00;4.32;;;23.10;99.90;;;;;;4987977;28;20507;-74
2023/09/15 10:29:30;;;;;;;12.50;4.85;;;23.10;99.90;;;;;;4984946;28;20041;-74
2023/09/15 10:31:58;;;;;;;7.45;4.88;;;23.20;99.90;;;;;;4991339;28;20435;-74
2023/09/15 10:34:25;;;;;;;9.55;4.78;;;23.10;99.90;;;;;;4994177;28;20135;-75
2023/09/15 10:36:52;;;;;;;6.78;4.80;;;23.20;99.90;;;;;;4990985;28;20049;-74
2023/09/15 10:39:19;;;;;;;8.10;4.28;;;23.00;99.90;;;;;;4994871;28;20025;-74
2023/09/15 10:41:45;;;;;;;11.05;4.93;;;23.00;99.90;;;;;;4985960;28;20037;-74
2023/09/15 10:44:11;;;;;;;13.18;4.38;;;23.10;99.90;;;;;;4986207;28;20038;-75
2023/09/15 10:46:42;;;;;;;8.25;4.45;;;23.20;99.90;;;;;;5006223;28;20052;-76
2023/09/15 10:49:14;;;;;;;11.68;5.03;;;23.30;99.90;;;;;;5003617;28;20029;-73
2023/09/15 10:51:51;;;;;;;8.65;4.38;;;23.40;99.90;;;;;;5007834;28;20050;-73
2023/09/15 10:54:18;;;;;;;8.80;4.68;;;23.80;99.90;;;;;;5008168;28;20021;-73
2023/09/15 10:56:45;;;;;;;6.70;4.80;;;24.10;99.90;;;;;;5007720;28;20095;-73
2023/09/15 10:59:10;;;;;;;8.07;4.28;;;23.90;99.90;;;;;;5007674;28;20170;-74
2023/09/15 11:01:36;;;;;;;5.68;4.07;;;24.30;99.90;;;;;;4998038;28;20496;-73
2023/09/15 11:04:03;;;;;;;6.38;3.90;;;24.60;99.90;;;;;;4988483;28;20527;-73
2023/09/15 11:06:29;;;;;;;8.50;3.70;;;24.90;99.90;;;;;;4988115;28;20026;-72
2023/09/15 11:08:57;;;;;;;6.72;4.30;;;24.90;99.90;;;;;;4988303;28;20030;-74
2023/09/15 11:11:23;;;;;;;6.47;3.67;;;25.00;99.90;;;;;;4988234;28;20092;-73
2023/09/15 11:13:48;;;;;;;5.38;3.47;;;25.10;99.90;;;;;;4988406;28;20416;-74
2023/09/15 11:16:14;;;;;;;6.30;2.85;;;25.20;99.90;;;;;;4988022;28;20080;-74
2023/09/15 11:18:40;;;;;;;4.35;2.47;;;25.20;99.90;;;;;;4987873;28;20397;-73
2023/09/15 11:21:06;;;;;;;2.60;1.80;;;25.20;99.90;;;;;;4987706;28;20133;-73
2023/09/15 11:23:32;;;;;;;3.58;2.08;;;25.40;99.90;;;;;;4987720;28;20034;-74
2023/09/15 11:26:06;;;;;;;2.75;1.65;;;25.40;99.80;;;;;;4987893;28;20479;-73
2023/09/15 11:28:35;;;;;;;3.00;1.73;;;25.20;99.20;;;;;;4987845;28;20026;-73
2023/09/15 11:31:04;;;;;;;3.55;2.20;;;24.90;99.00;;;;;;4987964;28;20577;-73
2023/09/15 11:33:30;;;;;;;2.78;1.67;;;24.80;99.10;;;;;;4989233;28;20109;-73
2023/09/15 11:36:01;;;;;;;5.15;1.35;;;25.00;99.50;;;;;;4987542;28;20596;-74
2023/09/15 11:38:27;;;;;;;6.25;1.70;;;25.20;98.40;;;;;;4999423;28;20464;-74
2023/09/15 11:40:53;;;;;;;2.97;1.55;;;25.40;98.40;;;;;;5006905;28;20034;-74
2023/09/15 11:43:23;;;;;;;2.70;1.48;;;25.80;98.10;;;;;;4999048;28;20232;-73
2023/09/15 11:45:50;;;;;;;3.17;1.77;;;26.00;97.70;;;;;;4984524;28;20030;-73
2023/09/15 11:48:16;;;;;;;3.22;1.80;;;26.10;97.40;;;;;;4982427;28;20045;-74
2023/09/15 11:50:43;;;;;;;3.63;2.20;;;26.10;97.90;;;;;;4985936;28;20669;-74
2023/09/15 11:53:09;;;;;;;4.55;1.77;;;26.10;98.60;;;;;;4989121;28;20038;-74
2023/09/15 11:55:35;;;;;;;3.15;1.80;;;25.80;99.10;;;;;;4984367;28;20030;-74
2023/09/15 11:58:02;;;;;;;3.25;1.85;;;25.60;98.90;;;;;;4992392;28;20066;-73
2023/09/15 12:00:30;;;;;;;4.65;2.00;;;25.40;98.70;;;;;;4989868;28;20041;-73
2023/09/15 12:02:56;;;;;;;3.22;1.70;;;25.30;98.80;;;;;;4983214;28;20359;-76
2023/09/15 12:05:23;;;;;;;3.83;1.90;;;25.20;98.10;;;;;;4985110;28;20037;-74
2023/09/15 12:07:50;;;;;;;3.50;1.77;;;25.00;97.70;;;;;;4984077;28;20038;-75
2023/09/15 12:10:17;;;;;;;4.60;2.40;;;25.10;97.60;;;;;;4989185;28;20129;-81
2023/09/15 12:12:47;;;;;;;6.43;2.78;;;25.10;99.50;;;;;;4984625;28;20188;-79
2023/09/15 12:15:16;;;;;;;4.07;2.05;;;25.00;99.90;;;;;;4985141;28;20522;-76
2023/09/15 12:17:44;;;;;;;2.67;1.65;;;24.90;99.90;;;;;;4982163;28;20100;-76
2023/09/15 12:20:10;;;;;;;6.63;2.08;;;24.60;99.90;;;;;;4983949;28;20121;-75
2023/09/15 12:22:41;;;;;;;5.03;2.83;;;24.60;99.20;;;;;;4995605;28;20034;-75
2023/09/15 12:25:10;;;;;;;3.63;2.20;;;24.50;99.30;;;;;;4986198;28;20029;-75
2023/09/15 12:27:41;;;;;;;4.22;2.63;;;24.70;99.30;;;;;;4982834;28;20471;-74
2023/09/15 12:30:11;;;;;;;7.03;2.08;;;24.70;98.40;;;;;;4981460;28;20030;-74
2023/09/15 12:32:37;;;;;;;3.08;1.75;;;24.70;98.30;;;;;;4986158;28;20113;-75
2023/09/15 12:35:09;;;;;;;3.30;1.90;;;24.80;98.00;;;;;;4983920;28;20045;-75
2023/09/15 12:37:34;;;;;;;4.05;2.25;;;25.40;98.80;;;;;;4985056;28;20129;-74
2023/09/15 12:40:00;;;;;;;4.07;1.98;;;25.70;97.10;;;;;;4989879;28;20038;-75
2023/09/15 12:42:26;;;;;;;3.00;1.80;;;26.00;97.20;;;;;;4983492;28;20050;-76
2023/09/15 12:44:52;;;;;;;4.43;2.10;;;26.10;96.30;;;;;;4984842;28;20034;-74